Terminal Aerodrome Forecast
Issued by NWS Pocatello, ID

Home | Current Version | Previous Version | Text Only | Print | Product List | Glossary On
Versions: 1 2 3 4 5 6 7 8 9 10 11 12 13
000
FTUS45 KPIH 241100
TAFBYI
TAF
KBYI 241120Z 2412/2512 VRB04KT P6SM OVC110
     FM241800 20011KT P6SM SKC
     FM250300 17008KT P6SM SKC=

USA.gov is the U.S. government's official web portal to all federal, state and local government web resources and services.